Time;durP1;ratioP1;P1;durP2;ratioP2;P2;SDS_P1;SDS_P2;PMS_P1;PMS_P2;Temp;Humidity;BMP_temperature;BMP_pressure;BME280_temperature;BME280_humidity;BME280_pressure;Samples;Min_cycle;Max_cycle;Signal;HPM_P1;HPM_P2
2022/01/12 00:04:07;;;;;;;12.90;3.72;;;;;;;0.08;62.13;100159.14;1715140;80;21096;-84
2022/01/12 00:09:48;;;;;;;9.20;4.42;;;;;;;0.07;63.01;100155.73;1656691;80;21090;-83
2022/01/12 00:12:22;;;;;;;12.43;5.33;;;;;;;0.02;62.47;100158.94;1680117;81;21107;31
2022/01/12 00:14:49;;;;;;;8.40;3.83;;;;;;;-0.01;61.57;100163.55;1696744;81;21090;-82
2022/01/12 00:17:19;;;;;;;9.48;3.65;;;;;;;-0.01;62.05;100164.83;1707506;79;21240;-77
2022/01/12 00:19:47;;;;;;;10.95;3.70;;;;;;;-0.03;60.84;100180.11;1734698;80;21442;-82
2022/01/12 00:25:30;;;;;;;10.38;3.85;;;;;;;-0.01;62.30;100182.30;1694671;80;21187;-81
2022/01/12 00:42:15;;;;;;;11.43;4.00;;;;;;;-0.15;61.78;100203.10;1706302;81;22452;-77
2022/01/12 00:47:47;;;;;;;9.80;3.52;;;;;;;-0.28;60.63;100203.94;1722180;79;21143;-83
2022/01/12 01:09:38;;;;;;;11.63;4.03;;;;;;;-0.43;60.81;100199.55;1677751;81;21219;-84
2022/01/12 01:27:21;;;;;;;8.43;3.40;;;;;;;-0.64;61.36;100209.81;1694631;81;21224;-79
2022/01/12 01:32:57;;;;;;;7.20;3.25;;;;;;;-0.70;62.00;100219.80;1675597;81;21088;-82
2022/01/12 01:57:46;;;;;;;9.10;4.13;;;;;;;-0.89;62.10;100228.45;1716151;80;21102;31
2022/01/12 02:00:19;;;;;;;7.33;3.87;;;;;;;-0.91;62.29;100231.36;1746192;81;21006;-84
2022/01/12 02:02:56;;;;;;;13.03;4.40;;;;;;;-0.92;61.88;100230.45;1704054;80;21135;-81
2022/01/12 02:05:26;;;;;;;7.00;3.30;;;;;;;-0.90;62.01;100227.97;1717368;82;21112;-83
2022/01/12 02:58:30;;;;;;;11.53;3.75;;;;;;;-1.16;60.72;100253.33;1701609;82;21128;31
2022/01/12 03:42:21;;;;;;;10.60;4.45;;;;;;;-1.44;61.51;100280.25;1700202;81;21153;31
2022/01/12 03:44:49;;;;;;;9.03;3.87;;;;;;;-1.41;61.87;100276.98;1682970;83;21409;-84
2022/01/12 03:47:17;;;;;;;11.48;5.05;;;;;;;-1.48;61.36;100279.66;1684910;83;21090;-85
2022/01/12 03:55:54;;;;;;;14.30;4.97;;;;;;;-1.50;61.77;100278.72;1662346;85;21064;-85
2022/01/12 04:34:09;;;;;;;16.83;5.63;;;;;;;-1.54;61.70;100302.35;1722034;80;21124;31
2022/01/12 04:58:21;;;;;;;8.00;4.20;;;;;;;-1.72;61.26;100313.91;1692299;81;21176;31
2022/01/12 05:07:23;;;;;;;10.75;5.47;;;;;;;-1.68;61.48;100328.95;1702265;79;21082;-84
2022/01/12 05:26:57;;;;;;;12.53;5.35;;;;;;;-1.67;61.23;100312.45;1720720;81;22440;-84
2022/01/12 05:29:25;;;;;;;14.95;6.12;;;;;;;-1.66;61.68;100320.95;1727195;81;21096;-83
2022/01/12 05:41:52;;;;;;;16.45;6.45;;;;;;;-1.63;62.03;100321.11;1702047;80;21151;31
2022/01/12 05:50:16;;;;;;;19.98;6.03;;;;;;;-1.66;61.84;100341.36;1729802;78;21059;-84
2022/01/12 05:55:44;;;;;;;14.40;5.08;;;;;;;-1.69;62.26;100342.48;1664791;86;21277;-82
2022/01/12 06:04:14;;;;;;;12.90;5.67;;;;;;;-1.75;61.17;100354.59;1647909;81;21380;31
2022/01/12 06:09:45;;;;;;;12.63;5.55;;;;;;;-1.78;61.19;100365.04;1688653;79;21480;-84
2022/01/12 06:12:13;;;;;;;16.97;5.90;;;;;;;-1.78;61.99;100368.87;1682417;80;21221;-79
2022/01/12 06:23:45;;;;;;;16.65;5.28;;;;;;;-1.80;61.86;100389.19;1654844;81;21110;-84
2022/01/12 06:26:13;;;;;;;12.53;5.42;;;;;;;-1.83;60.94;100387.76;1648258;82;21104;-82
2022/01/12 06:28:54;;;;;;;13.68;5.00;;;;;;;-1.82;60.68;100392.93;1683749;84;21060;-82
2022/01/12 06:31:14;;;;;;;15.60;6.30;;;;;;;-1.87;61.33;100388.42;1681973;84;21072;-83
2022/01/12 06:33:45;;;;;;;15.08;6.15;;;;;;;-1.93;61.08;100405.61;1682238;83;21115;-83
2022/01/12 06:36:17;;;;;;;12.05;5.50;;;;;;;-1.90;61.18;100403.59;1682341;83;21037;-82
2022/01/12 06:38:45;;;;;;;14.05;5.83;;;;;;;-1.93;60.91;100403.44;1682217;84;21038;-83
2022/01/12 06:41:14;;;;;;;13.80;5.67;;;;;;;-1.91;61.10;100417.13;1682633;83;21017;-82
2022/01/12 06:43:42;;;;;;;17.23;6.33;;;;;;;-1.88;60.40;100415.59;1679571;83;21019;-82
2022/01/12 06:46:13;;;;;;;12.58;4.83;;;;;;;-1.93;59.74;100418.73;1668418;80;21052;-83
2022/01/12 06:48:42;;;;;;;10.48;4.55;;;;;;;-2.05;58.21;100424.13;1666375;83;21056;-83
2022/01/12 06:54:16;;;;;;;23.32;4.85;;;;;;;-2.09;57.65;100437.53;1704783;81;21108;-83
2022/01/12 06:56:44;;;;;;;14.53;5.53;;;;;;;-2.20;58.27;100437.03;1749031;80;21098;-83
2022/01/12 06:59:11;;;;;;;21.75;5.55;;;;;;;-2.13;58.73;100440.36;1748680;80;20999;-83
2022/01/12 07:04:36;;;;;;;15.88;5.97;;;;;;;-2.19;59.13;100447.69;1709176;82;21123;-83
2022/01/12 07:07:04;;;;;;;15.40;5.65;;;;;;;-2.13;59.45;100447.11;1713773;83;21649;-84
2022/01/12 07:09:32;;;;;;;21.23;4.85;;;;;;;-2.10;58.36;100463.83;1728509;80;21054;-82
2022/01/12 07:12:02;;;;;;;12.73;5.00;;;;;;;-2.19;57.15;100456.60;1719500;80;21253;-82
2022/01/12 07:14:31;;;;;;;13.35;5.15;;;;;;;-2.13;58.52;100459.84;1733101;80;21048;-83
2022/01/12 07:16:59;;;;;;;15.15;5.37;;;;;;;-2.18;58.17;100460.91;1708009;84;20997;-85
2022/01/12 07:19:28;;;;;;;17.92;5.92;;;;;;;-2.08;59.12;100460.95;1704584;84;21024;-84
2022/01/12 07:21:57;;;;;;;18.85;5.78;;;;;;;-2.00;57.34;100463.46;1689501;84;21074;-84
2022/01/12 07:24:24;;;;;;;11.35;4.95;;;;;;;-1.99;56.59;100467.73;1707746;83;21024;-82
2022/01/12 07:26:51;;;;;;;20.15;4.85;;;;;;;-1.90;57.99;100470.73;1710044;82;21040;-84
2022/01/12 07:29:19;;;;;;;14.38;5.67;;;;;;;-2.11;56.76;100442.58;1708780;82;21102;-85
2022/01/12 07:31:48;;;;;;;15.32;6.25;;;;;;;-1.83;57.50;100475.33;1732343;80;21017;-84
2022/01/12 07:34:16;;;;;;;13.08;5.22;;;;;;;-1.82;56.24;100480.89;1704550;82;21105;-84
2022/01/12 07:36:44;;;;;;;13.43;5.05;;;;;;;-1.88;55.29;100486.11;1715445;81;20979;-85
2022/01/12 07:39:11;;;;;;;13.72;4.92;;;;;;;-1.90;55.89;100479.66;1727454;79;21067;-84
2022/01/12 07:41:40;;;;;;;11.88;5.10;;;;;;;-1.93;54.07;100478.63;1721466;80;21001;-85
2022/01/12 07:44:08;;;;;;;16.45;6.72;;;;;;;-1.87;56.25;100480.19;1730915;80;21091;-85
2022/01/12 07:46:38;;;;;;;14.98;5.03;;;;;;;-1.84;56.39;100482.49;1717961;82;21048;-87
2022/01/12 07:49:05;;;;;;;14.23;4.72;;;;;;;-1.84;54.20;100488.00;1706966;80;23781;-83
2022/01/12 08:00:45;;;;;;;11.10;4.28;;;;;;;-1.86;54.81;100500.66;1724941;80;21097;-83
2022/01/12 08:03:14;;;;;;;12.58;5.37;;;;;;;-1.79;54.37;100506.95;1721654;78;21076;-83
2022/01/12 08:05:44;;;;;;;12.63;5.42;;;;;;;-1.82;54.23;100516.58;1805452;79;21024;-84
2022/01/12 08:08:12;;;;;;;12.13;5.30;;;;;;;-1.77;55.57;100509.55;1805594;79;21028;-84
2022/01/12 08:10:40;;;;;;;15.25;4.95;;;;;;;-1.70;55.95;100512.45;1767425;79;21441;-83
2022/01/12 08:15:59;;;;;;;12.43;4.50;;;;;;;-1.58;55.04;100524.05;1679560;79;21107;-81
2022/01/12 08:18:27;;;;;;;9.00;4.42;;;;;;;-1.65;54.65;100516.11;1717329;83;21006;-82
2022/01/12 08:20:55;;;;;;;11.93;4.80;;;;;;;-1.61;53.67;100526.06;1723912;80;21042;-84
2022/01/12 08:23:22;;;;;;;10.63;4.80;;;;;;;-1.61;53.77;100530.75;1701930;81;21017;-84
2022/01/12 08:25:50;;;;;;;14.18;5.55;;;;;;;-1.58;53.39;100526.59;1693198;83;21045;-83
2022/01/12 08:31:21;;;;;;;18.62;5.30;;;;;;;-1.46;55.93;100533.13;1703868;79;21124;-83
2022/01/12 08:33:49;;;;;;;13.43;5.30;;;;;;;-1.43;53.74;100538.38;1705679;82;21096;-83
2022/01/12 08:54:35;;;;;;;9.03;4.40;;;;;;;-1.23;53.30;100557.56;1682329;79;21648;31
2022/01/12 09:09:50;;;;;;;13.83;5.10;;;;;;;-1.12;52.90;100565.28;1638639;87;21067;-83
2022/01/12 09:18:08;;;;;;;12.78;4.95;;;;;;;-1.07;54.79;100557.86;1721924;80;21097;-85
2022/01/12 09:20:38;;;;;;;13.62;4.80;;;;;;;-1.08;53.42;100557.38;1734729;80;20941;-84
2022/01/12 09:23:07;;;;;;;13.65;5.47;;;;;;;-1.07;53.89;100547.24;1739524;80;20987;-83
2022/01/12 09:25:39;;;;;;;13.48;5.97;;;;;;;-1.09;54.28;100546.30;1705302;84;20989;-83
2022/01/12 09:28:07;;;;;;;23.92;5.75;;;;;;;-0.91;55.15;100549.20;1703224;82;21048;-84
2022/01/12 09:33:24;;;;;;;11.88;5.28;;;;;;;-0.70;54.11;100540.32;1681539;83;21144;-80
2022/01/12 09:38:55;;;;;;;13.72;4.58;;;;;;;-0.52;52.56;100533.44;1732756;79;21207;-81
2022/01/12 09:41:25;;;;;;;17.37;6.25;;;;;;;-0.38;53.30;100536.98;1733970;81;21420;-82
2022/01/12 09:47:05;;;;;;;13.78;5.03;;;;;;;-0.18;52.03;100533.98;1722367;81;21341;-81
2022/01/12 09:49:33;;;;;;;11.48;5.30;;;;;;;-0.04;53.27;100526.47;1659511;81;21233;-83
2022/01/12 09:52:02;;;;;;;11.35;5.35;;;;;;;-0.08;51.84;100538.66;1646219;84;21054;-86
2022/01/12 09:54:32;;;;;;;17.73;5.80;;;;;;;-0.17;52.13;100539.58;1646127;84;21019;-84
2022/01/12 09:57:00;;;;;;;12.88;6.20;;;;;;;-0.13;52.17;100532.50;1679452;81;21158;-83
2022/01/12 10:15:10;;;;;;;16.23;6.55;;;;;;;0.10;54.18;100521.91;1688159;81;21056;-79
2022/01/12 10:48:02;;;;;;;13.98;5.15;;;;;;;0.42;53.75;100509.13;1745834;81;21139;-83
2022/01/12 10:50:29;;;;;;;11.30;5.40;;;;;;;0.40;52.41;100510.75;1765986;81;21064;-82
2022/01/12 10:52:57;;;;;;;17.73;5.62;;;;;;;0.48;54.13;100513.20;1772967;81;21027;-83
2022/01/12 10:55:24;;;;;;;15.35;5.83;;;;;;;0.61;53.50;100508.12;1759610;80;21039;-82
2022/01/12 10:57:56;;;;;;;12.70;5.40;;;;;;;0.64;53.30;100504.41;1735097;80;20964;-81
2022/01/12 11:00:23;;;;;;;15.18;5.80;;;;;;;0.64;53.29;100499.67;1749099;78;21031;-84
2022/01/12 11:02:56;;;;;;;11.53;4.80;;;;;;;0.68;51.91;100502.42;1727426;78;21152;-84
2022/01/12 11:08:06;;;;;;;16.40;7.05;;;;;;;0.94;53.80;100499.95;1678631;79;21131;-83
2022/01/12 11:10:33;;;;;;;27.27;7.58;;;;;;;1.00;53.67;100498.89;1703665;80;21051;-84
2022/01/12 11:13:01;;;;;;;15.65;5.78;;;;;;;1.12;54.11;100495.48;1717738;83;21038;-85
2022/01/12 11:24:18;;;;;;;21.82;6.42;;;;;;;1.35;51.94;100487.33;1657880;79;21168;-85
2022/01/12 11:26:52;;;;;;;15.95;6.95;;;;;;;1.46;53.67;100482.56;1690412;83;21114;-85
2022/01/12 11:32:42;;;;;;;12.37;5.42;;;;;;;1.75;53.40;100484.81;1692855;82;21082;-87
2022/01/12 11:35:10;;;;;;;14.85;5.95;;;;;;;1.78;53.44;100480.19;1710616;82;21104;-88
2022/01/12 11:37:47;;;;;;;17.77;5.20;;;;;;;1.82;53.12;100484.59;1722796;81;21042;-88
2022/01/12 11:40:18;;;;;;;12.78;4.92;;;;;;;1.86;51.04;100485.16;1681436;82;21026;-84
2022/01/12 11:42:51;;;;;;;13.35;5.67;;;;;;;1.83;53.00;100480.33;1701618;81;21068;-84
2022/01/12 11:45:20;;;;;;;13.68;6.08;;;;;;;2.01;53.61;100474.53;1717545;83;21040;-87
2022/01/12 11:47:48;;;;;;;16.75;6.45;;;;;;;2.13;53.11;100481.32;1715408;80;21048;-85
2022/01/12 11:50:16;;;;;;;11.70;5.72;;;;;;;2.16;53.55;100476.27;1721183;83;21023;-88
2022/01/12 11:52:43;;;;;;;12.00;5.25;;;;;;;2.26;53.72;100483.84;1721677;83;21093;-87
2022/01/12 11:58:03;;;;;;;13.88;5.83;;;;;;;2.64;52.90;100487.10;1646179;81;21104;-88
2022/01/12 12:00:39;;;;;;;14.33;5.95;;;;;;;2.79;52.41;100480.71;1668405;82;21230;-84
2022/01/12 12:03:20;;;;;;;12.07;5.45;;;;;;;3.15;53.41;100490.27;1708419;82;21054;-86
2022/01/12 12:05:53;;;;;;;15.63;6.72;;;;;;;4.23;50.38;100481.80;1743409;79;21068;-84
2022/01/12 12:08:25;;;;;;;15.78;6.15;;;;;;;5.24;50.12;100475.30;1743590;81;20972;-84
2022/01/12 12:10:53;;;;;;;17.15;7.40;;;;;;;6.42;47.67;100481.11;1746473;82;20959;-83
2022/01/12 12:13:22;;;;;;;13.30;6.17;;;;;;;7.49;46.00;100481.95;1749360;81;21035;-83
2022/01/12 12:15:51;;;;;;;14.33;6.45;;;;;;;8.35;42.62;100471.81;1744490;81;21056;-83
2022/01/12 12:18:18;;;;;;;14.87;6.72;;;;;;;9.08;39.91;100471.75;1742548;82;21003;-83
2022/01/12 12:20:46;;;;;;;12.50;5.83;;;;;;;9.60;42.59;100474.89;1733949;81;21085;-82
2022/01/12 12:23:14;;;;;;;14.35;6.70;;;;;;;10.00;40.53;100468.83;1731900;80;21052;-84
2022/01/12 12:25:41;;;;;;;12.80;7.37;;;;;;;10.54;42.07;100470.52;1760812;80;21308;-85
2022/01/12 12:28:09;;;;;;;14.18;7.20;;;;;;;11.12;34.10;100476.31;1734857;81;21109;-87
2022/01/12 12:30:40;;;;;;;14.15;7.30;;;;;;;11.32;40.46;100473.19;1761901;78;21036;-87
2022/01/12 12:33:12;;;;;;;13.68;7.10;;;;;;;11.41;38.83;100478.77;1751470;78;21046;-87
2022/01/12 12:35:42;;;;;;;17.98;7.45;;;;;;;11.50;39.76;100479.16;1713084;78;21095;-92
2022/01/12 12:38:16;;;;;;;16.97;7.50;;;;;;;11.41;34.51;100474.86;1697556;81;21114;-86
2022/01/12 12:40:50;;;;;;;14.13;7.25;;;;;;;11.27;38.03;100477.55;1686237;83;21071;-86
2022/01/12 12:43:25;;;;;;;14.75;6.50;;;;;;;11.47;34.74;100472.66;1699604;85;21062;-86
2022/01/12 12:46:05;;;;;;;14.35;6.80;;;;;;;11.58;33.24;100472.16;1683985;83;21065;-87
2022/01/12 12:48:35;;;;;;;16.02;8.03;;;;;;;11.30;37.75;100473.63;1658416;84;21019;-87
2022/01/12 12:51:11;;;;;;;15.32;7.37;;;;;;;10.89;32.42;100473.84;1725006;80;21704;-86
2022/01/12 12:53:45;;;;;;;17.98;7.42;;;;;;;10.42;33.59;100471.82;1709378;81;21043;-84
2022/01/12 12:56:19;;;;;;;13.83;7.22;;;;;;;9.49;33.75;100483.97;1738855;80;21380;-91
2022/01/12 12:58:56;;;;;;;17.50;6.85;;;;;;;8.82;37.77;100473.41;1750303;78;21093;-89
2022/01/12 13:01:27;;;;;;;13.83;6.42;;;;;;;8.12;38.61;100476.88;1762425;79;20953;-91
2022/01/12 13:03:58;;;;;;;13.15;5.83;;;;;;;7.37;37.43;100479.67;1720453;80;21071;-93
2022/01/12 13:06:30;;;;;;;13.55;6.22;;;;;;;6.83;39.19;100477.36;1770611;79;21110;-90
2022/01/12 13:09:04;;;;;;;14.03;7.25;;;;;;;6.30;39.23;100479.22;1746810;77;21075;-89
2022/01/12 13:11:37;;;;;;;14.55;5.20;;;;;;;5.88;40.72;100487.16;1715975;78;21202;-90
2022/01/12 13:14:11;;;;;;;;;;;;;;;5.28;39.89;100488.27;1714409;80;21102;-91
2022/01/12 13:16:52;;;;;;;16.93;5.77;;;;;;;4.89;41.29;100489.66;1709639;81;20123;-86
2022/01/12 13:22:34;;;;;;;14.65;5.90;;;;;;;4.38;42.23;100490.73;1723998;82;21194;-81
2022/01/12 13:25:07;;;;;;;10.85;5.42;;;;;;;4.04;42.70;100488.20;1762295;81;21023;-85
2022/01/12 13:27:37;;;;;;;11.68;5.90;;;;;;;3.59;43.90;100490.98;1758025;80;21118;-89
2022/01/12 13:30:09;;;;;;;19.60;6.22;;;;;;;3.41;43.86;100496.95;1749807;79;21047;-88
2022/01/12 13:32:38;;;;;;;12.88;5.87;;;;;;;3.12;44.16;100496.62;1727232;81;21155;-85
2022/01/12 13:35:10;;;;;;;18.27;6.95;;;;;;;2.83;44.89;100497.09;1737307;81;21083;-84
2022/01/12 13:37:42;;;;;;;19.60;6.58;;;;;;;2.67;45.91;100493.63;1715653;81;21237;-88
2022/01/12 13:40:13;;;;;;;13.70;6.33;;;;;;;2.61;46.29;100493.03;1767241;78;20998;-84
2022/01/12 13:42:54;;;;;;;13.90;5.70;;;;;;;2.56;46.88;100500.57;1752675;80;21022;-83
2022/01/12 13:45:27;;;;;;;14.15;6.40;;;;;;;2.49;46.67;100501.66;1755348;80;20990;-83
2022/01/12 13:48:00;;;;;;;13.70;6.37;;;;;;;2.35;47.09;100500.81;1720535;82;21106;-84
2022/01/12 13:50:36;;;;;;;12.13;5.12;;;;;;;2.16;48.23;100485.67;1750647;81;21274;-85
2022/01/12 13:53:05;;;;;;;13.03;5.72;;;;;;;2.16;48.23;100485.67;1751836;81;20980;-82
2022/01/12 13:55:34;;;;;;;15.00;6.37;;;;;;;2.16;47.29;100501.92;1741962;80;21066;-84
2022/01/12 13:58:06;;;;;;;16.75;6.22;;;;;;;2.08;49.26;100510.22;1752196;81;21005;-82
2022/01/12 14:00:36;;;;;;;17.42;6.15;;;;;;;2.06;49.37;100506.73;1740537;78;21044;-85
2022/01/12 14:03:19;;;;;;;16.80;6.15;;;;;;;1.91;48.96;100511.84;1731663;78;21290;-84
2022/01/12 14:05:47;;;;;;;15.23;6.08;;;;;;;1.55;48.75;100475.58;1691237;80;21086;-85
2022/01/12 14:08:15;;;;;;;17.55;6.42;;;;;;;1.55;49.25;100484.55;1801989;79;21051;-82
2022/01/12 14:10:54;;;;;;;15.18;5.28;;;;;;;1.64;49.25;100507.08;1762042;78;21207;31
2022/01/12 14:13:29;;;;;;;16.97;5.90;;;;;;;1.56;49.33;100506.39;1719441;81;21096;-83
2022/01/12 14:16:14;;;;;;;13.72;5.78;;;;;;;1.52;49.85;100503.69;1729265;79;21114;-84
2022/01/12 14:18:42;;;;;;;11.75;4.70;;;;;;;1.45;50.40;100501.72;1717631;81;21411;-84
2022/01/12 14:21:18;;;;;;;18.42;7.67;;;;;;;1.40;50.13;100501.57;1742325;79;21113;31
2022/01/12 14:23:48;;;;;;;21.73;8.20;;;;;;;1.34;50.60;100505.20;1735952;81;21035;-84
2022/01/12 14:26:25;;;;;;;15.18;6.03;;;;;;;1.32;50.34;100506.84;1737241;81;20989;-86
2022/01/12 14:29:10;;;;;;;26.80;8.53;;;;;;;1.28;50.60;100505.86;1729785;80;22519;31
2022/01/12 14:31:42;;;;;;;22.93;7.62;;;;;;;1.24;51.07;100514.67;1714443;82;21037;-84
2022/01/12 14:34:10;;;;;;;19.05;6.83;;;;;;;1.19;51.32;100519.23;1722134;82;21006;-85
2022/01/12 14:36:41;;;;;;;16.57;6.50;;;;;;;1.13;51.04;100517.70;1710007;82;21053;-82
2022/01/12 14:41:59;;;;;;;25.20;9.98;;;;;;;1.00;52.05;100519.38;1728741;81;21064;-81
2022/01/12 14:47:42;;;;;;;17.35;8.33;;;;;;;0.79;53.72;100524.16;1730999;81;21054;-82
2022/01/12 14:50:10;;;;;;;22.93;9.25;;;;;;;0.65;54.01;100525.75;1753594;80;20939;-81
2022/01/12 14:52:38;;;;;;;21.35;9.35;;;;;;;0.51;54.02;100527.37;1743571;80;20990;-81
2022/01/12 14:55:08;;;;;;;23.30;8.28;;;;;;;0.43;52.90;100537.72;1753997;80;21046;-83
2022/01/12 14:57:36;;;;;;;20.02;8.75;;;;;;;0.30;53.95;100536.38;1734817;82;21017;-82
2022/01/12 15:00:08;;;;;;;21.52;9.00;;;;;;;0.23;55.09;100533.52;1741827;80;21064;-83
2022/01/12 15:02:36;;;;;;;23.67;8.20;;;;;;;0.17;54.77;100541.81;1725481;80;21051;-82
2022/01/12 15:24:08;;;;;;;23.35;8.95;;;;;;;-0.43;57.07;100545.75;1780671;78;21102;-82
2022/01/12 15:29:30;;;;;;;27.07;9.38;;;;;;;-0.62;57.38;100546.25;1671513;86;21031;-83
2022/01/12 15:31:58;;;;;;;24.32;7.80;;;;;;;-0.73;57.09;100546.59;1654267;86;21043;-84
2022/01/12 15:34:29;;;;;;;23.00;8.80;;;;;;;-0.82;57.21;100544.48;1660456;83;22494;31
2022/01/12 15:36:58;;;;;;;33.45;10.28;;;;;;;-0.87;56.19;100545.98;1622496;87;21022;-82
2022/01/12 15:42:18;;;;;;;82.27;24.47;;;;;;;-1.02;56.83;100549.58;1710367;81;21375;-83
2022/01/12 15:47:52;;;;;;;21.73;9.20;;;;;;;-1.14;59.32;100550.72;1703584;81;21060;-84
2022/01/12 15:53:09;;;;;;;23.40;8.97;;;;;;;-1.29;58.14;100559.43;1705215;81;21162;-80
2022/01/12 15:55:51;;;;;;;34.43;9.95;;;;;;;-1.37;60.49;100572.24;1737376;80;21103;31
2022/01/12 16:01:23;;;;;;;27.13;10.40;;;;;;;-1.39;57.91;100585.33;1714452;80;21153;-81
2022/01/12 16:10:07;;;;;;;27.13;9.55;;;;;;;-1.54;59.36;100597.34;1716457;81;21237;-85
2022/01/12 16:18:43;;;;;;;27.13;8.83;;;;;;;-1.67;59.32;100592.94;1730885;79;21086;-80
2022/01/12 17:01:18;;;;;;;27.00;10.58;;;;;;;-2.08;59.26;100627.88;1699055;80;21178;31
2022/01/12 17:10:10;;;;;;;27.45;9.98;;;;;;;-2.18;60.96;100628.21;1675545;82;21209;31
2022/01/12 17:16:00;;;;;;;30.90;10.55;;;;;;;-2.22;60.46;100638.23;1710730;81;21611;-83
2022/01/12 17:36:52;;;;;;;30.08;10.45;;;;;;;-2.04;60.59;100680.75;1678842;81;22965;31
2022/01/12 17:48:26;;;;;;;26.40;9.70;;;;;;;-1.85;59.69;100695.28;1666999;81;21119;-80
2022/01/12 17:50:56;;;;;;;25.20;8.95;;;;;;;-1.83;59.01;100700.95;1676392;81;21180;31
2022/01/12 17:59:31;;;;;;;23.62;9.38;;;;;;;-1.75;59.28;100697.52;1669112;81;21158;-83
2022/01/12 18:01:59;;;;;;;29.60;10.40;;;;;;;-1.76;59.38;100700.85;1647725;85;21111;-83
2022/01/12 18:04:27;;;;;;;38.13;11.28;;;;;;;-1.70;59.31;100702.84;1629983;87;21095;-83
2022/01/12 18:06:55;;;;;;;32.55;11.65;;;;;;;-1.71;59.71;100704.90;1629952;88;21067;-83
2022/01/12 18:09:40;;;;;;;32.65;11.78;;;;;;;-1.74;59.86;100706.03;1634785;83;21079;31
2022/01/12 18:12:11;;;;;;;35.85;13.03;;;;;;;-1.72;59.75;100706.58;1692603;85;21535;-83
2022/01/12 18:24:21;;;;;;;32.33;12.78;;;;;;;-1.75;61.24;100705.17;1696452;79;21115;-82
2022/01/12 18:49:19;;;;;;;33.23;12.63;;;;;;;-1.94;61.52;100703.35;1697437;81;21228;-82
2022/01/12 19:16:05;;;;;;;23.03;10.13;;;;;;;-2.02;62.25;100739.91;1655477;83;21150;31
2022/01/12 19:18:33;;;;;;;39.42;11.85;;;;;;;-2.04;62.29;100731.72;1684058;85;21087;-83
2022/01/12 19:21:09;;;;;;;36.73;12.88;;;;;;;-2.02;61.67;100730.12;1693424;81;21130;31
2022/01/12 19:35:42;;;;;;;26.85;10.32;;;;;;;-2.16;61.91;100725.58;1705567;80;21138;-86
2022/01/12 19:44:32;;;;;;;23.75;7.72;;;;;;;-2.29;61.80;100730.45;1706189;80;22416;31
2022/01/12 19:46:57;;;;;;;27.10;10.08;;;;;;;-2.28;62.03;100730.05;1670351;85;21054;-83
2022/01/12 19:58:05;;;;;;;33.42;10.25;;;;;;;-2.25;63.33;100722.55;1654418;82;21190;31
2022/01/12 20:00:41;;;;;;;22.32;8.80;;;;;;;-2.22;63.03;100721.04;1703087;83;21015;-85
2022/01/12 20:03:30;;;;;;;31.57;10.27;;;;;;;-2.26;63.26;100734.41;1668921;82;21282;31
2022/01/12 20:34:39;;;;;;;30.17;10.82;;;;;;;-2.39;63.41;100772.77;1695824;81;21679;31
2022/01/12 20:46:33;;;;;;;27.33;10.67;;;;;;;-2.41;63.69;100788.36;1663852;83;21093;31
2022/01/12 21:01:44;;;;;;;20.90;10.15;;;;;;;-2.51;63.94;100799.71;1702287;80;21106;31
2022/01/12 21:04:27;;;;;;;32.48;10.72;;;;;;;-2.47;63.25;100795.67;1645197;81;21144;31
2022/01/12 21:31:36;;;;;;;25.70;11.38;;;;;;;-2.61;62.93;100820.01;1727445;80;21586;31
2022/01/12 21:34:17;;;;;;;28.25;11.00;;;;;;;-2.64;63.24;100816.00;1725810;79;22554;31
2022/01/12 21:36:42;;;;;;;37.40;12.80;;;;;;;-2.67;63.11;100824.73;1698428;83;21052;-83
2022/01/12 22:07:34;;;;;;;38.20;13.58;;;;;;;-2.71;63.82;100829.17;1716655;80;21121;31
2022/01/12 22:19:07;;;;;;;38.33;13.32;;;;;;;-2.91;63.66;100845.86;1688620;80;22290;31
2022/01/12 22:27:55;;;;;;;43.98;13.78;;;;;;;-3.00;63.99;100832.64;1640634;82;21167;31
2022/01/12 22:36:23;;;;;;;35.95;12.85;;;;;;;-3.07;64.00;100838.16;1632716;83;21164;31
2022/01/12 22:45:05;;;;;;;32.10;11.63;;;;;;;-3.22;63.90;100834.34;1661017;82;21127;31
2022/01/12 22:50:59;;;;;;;24.10;9.77;;;;;;;-3.27;64.17;100844.63;1676660;81;22491;31
2022/01/12 22:53:41;;;;;;;25.95;10.55;;;;;;;-3.26;63.86;100842.59;1674198;81;21197;31
2022/01/12 22:56:38;;;;;;;35.20;11.70;;;;;;;-3.34;63.96;100845.05;1691286;80;22612;31
2022/01/12 22:59:04;;;;;;;38.93;15.03;;;;;;;-3.39;64.27;100861.31;1640571;87;21110;-81
2022/01/12 23:01:33;;;;;;;42.40;14.35;;;;;;;-3.38;63.99;100859.64;1639433;87;21751;-81
2022/01/12 23:04:03;;;;;;;43.08;15.40;;;;;;;-3.43;64.18;100861.52;1637433;87;21713;-83
2022/01/12 23:06:37;;;;;;;43.80;15.43;;;;;;;-3.46;64.47;100861.36;1673138;82;22947;31
2022/01/12 23:09:15;;;;;;;39.73;14.35;;;;;;;-3.45;64.64;100856.74;1656732;82;21124;31
2022/01/12 23:11:49;;;;;;;40.60;15.03;;;;;;;-3.46;64.60;100856.64;1672286;82;21248;31
2022/01/12 23:14:28;;;;;;;39.25;13.93;;;;;;;-3.43;64.59;100844.99;1676531;82;21616;31
2022/01/12 23:16:56;;;;;;;48.33;16.77;;;;;;;-3.45;65.05;100850.38;1673813;84;21079;-83
2022/01/12 23:19:43;;;;;;;38.30;12.82;;;;;;;-3.42;65.39;100848.04;1679885;82;21134;31
2022/01/12 23:22:17;;;;;;;33.92;12.75;;;;;;;-3.37;65.06;100842.34;1677928;82;21130;31
2022/01/12 23:24:53;;;;;;;;;;;;;;;-3.41;64.94;100844.69;1681979;82;21122;31
2022/01/12 23:30:38;;;;;;;31.50;12.80;;;;;;;-3.50;66.84;100842.90;1732934;79;21628;31
2022/01/12 23:33:10;;;;;;;35.25;12.80;;;;;;;-3.49;65.95;100847.18;1739128;80;21117;-78
2022/01/12 23:51:03;;;;;;;43.85;15.32;;;;;;;-3.60;66.37;100855.45;1683596;80;21114;31
2022/01/12 23:56:54;;;;;;;40.52;15.65;;;;;;;-3.62;66.35;100847.22;1683487;80;21563;31
2022/01/12 23:59:26;;;;;;;55.38;18.55;;;;;;;-3.67;66.32;100852.45;1709817;79;21138;-77
